Time;durP1;ratioP1;P1;durP2;ratioP2;P2;SDS_P1;SDS_P2;PMS_P1;PMS_P2;Temp;Humidity;BMP_temperature;BMP_pressure;BME280_temperature;BME280_humidity;BME280_pressure;Samples;Min_cycle;Max_cycle;Signal;HPM_P1;HPM_P2
2021/10/14 00:00:12;;;;;;;;;;;;;;;;;;2115550;28;19923;-58
2021/10/14 00:01:13;;;;;;;;;;;;;;;;;;2115467;28;19928;-58
2021/10/14 00:02:16;;;;;;;;;;;;;;;;;;2115564;28;20424;-59
2021/10/14 00:03:16;;;;;;;;;;;;;;;;;;2115423;28;20384;-58
2021/10/14 00:04:18;;;;;;;;;;;;;;;;;;2115530;28;19924;-58
2021/10/14 00:05:18;;;;;;;;;;;;;;;;;;2115297;28;19924;-58
2021/10/14 00:06:19;;;;;;;;;;;;;;;;;;2115551;28;20153;-59
2021/10/14 00:07:20;;;;;;;;;;;;;;;;;;2115422;28;19934;-59
2021/10/14 00:08:21;;;;;;;;;;;;;;;;;;2115547;28;19923;-59
2021/10/14 00:09:22;;;;;;;;;;;;;;;;;;2115494;28;19984;-58
2021/10/14 00:10:22;;;;;;;;;;;;;;;;;;2115424;28;19924;-59
2021/10/14 00:11:24;;;;;;;;;;;;;;;;;;2115506;28;20475;-58
2021/10/14 00:12:24;;;;;;;;;;;;;;;;;;2115366;28;20026;-58
2021/10/14 00:13:25;;;;;;;;;;;;;;;;;;2115411;28;19930;-58
2021/10/14 00:14:26;;;;;;;;;;;;;;;;;;2115402;28;19930;-58
2021/10/14 00:15:27;;;;;;;;;;;;;;;;;;2115327;28;19965;-58
2021/10/14 00:16:28;;;;;;;;;;;;;;;;;;2115513;28;19931;-58
2021/10/14 00:17:28;;;;;;;;;;;;;;;;;;2115540;28;19923;-58
2021/10/14 00:18:29;;;;;;;;;;;;;;;;;;2115252;28;20396;-58
2021/10/14 00:19:31;;;;;;;;;;;;;;;;;;2115526;28;19924;-58
2021/10/14 00:20:32;;;;;;;;;;;;;;;;;;2115269;28;20011;-58
2021/10/14 00:21:33;;;;;;;;;;;;;;;;;;2115358;28;19931;-58
2021/10/14 00:22:34;;;;;;;;;;;;;;;;;;2115315;28;19930;-58
2021/10/14 00:23:34;;;;;;;;;;;;;;;;;;2115406;28;19923;-58
2021/10/14 00:24:35;;;;;;;;;;;;;;;;;;2115352;28;20300;-58
2021/10/14 00:25:36;;;;;;;;;;;;;;;;;;2115252;28;19928;-58
2021/10/14 00:26:37;;;;;;;;;;;;;;;;;;2115371;28;19935;-58
2021/10/14 00:27:37;;;;;;;;;;;;;;;;;;2115261;28;20334;-58
2021/10/14 00:28:38;;;;;;;;;;;;;;;;;;2115349;28;19924;-58
2021/10/14 00:29:39;;;;;;;;;;;;;;;;;;2115295;28;19923;-58
2021/10/14 00:30:40;;;;;;;;;;;;;;;;;;2115362;28;19984;-58
2021/10/14 00:31:41;;;;;;;;;;;;;;;;;;2115257;28;19924;-58
2021/10/14 00:32:41;;;;;;;;;;;;;;;;;;2115488;28;20288;-58
2021/10/14 00:33:42;;;;;;;;;;;;;;;;;;2115335;28;20073;-58
2021/10/14 00:34:43;;;;;;;;;;;;;;;;;;2115457;28;19976;-58
2021/10/14 00:35:44;;;;;;;;;;;;;;;;;;2115146;28;19923;-58
2021/10/14 00:36:45;;;;;;;;;;;;;;;;;;2115532;28;19924;-58
2021/10/14 00:37:45;;;;;;;;;;;;;;;;;;2115066;28;20307;-58
2021/10/14 00:38:46;;;;;;;;;;;;;;;;;;2115352;28;20411;-58
2021/10/14 00:39:47;;;;;;;;;;;;;;;;;;2115177;28;19954;-58
2021/10/14 00:40:48;;;;;;;;;;;;;;;;;;2115270;28;19937;-57
2021/10/14 00:41:49;;;;;;;;;;;;;;;;;;2115068;28;20077;-58
2021/10/14 00:42:50;;;;;;;;;;;;;;;;;;2115346;28;19934;-58
2021/10/14 00:43:51;;;;;;;;;;;;;;;;;;2114918;28;20026;-58
2021/10/14 00:44:51;;;;;;;;;;;;;;;;;;2115415;28;19924;-58
2021/10/14 00:45:52;;;;;;;;;;;;;;;;;;2114067;28;20387;-58
2021/10/14 00:46:53;;;;;;;;;;;;;;;;;;2115128;28;20407;-58
2021/10/14 00:47:54;;;;;;;;;;;;;;;;;;2114967;28;19931;-57
2021/10/14 00:48:55;;;;;;;;;;;;;;;;;;2115365;28;19923;-57
2021/10/14 00:49:55;;;;;;;;;;;;;;;;;;2115223;28;20415;-58
2021/10/14 00:50:56;;;;;;;;;;;;;;;;;;2115221;28;20316;-57
2021/10/14 00:51:57;;;;;;;;;;;;;;;;;;2115038;28;19934;-58
2021/10/14 00:52:58;;;;;;;;;;;;;;;;;;2115268;28;19924;-58
2021/10/14 00:53:58;;;;;;;;;;;;;;;;;;2114992;28;19924;-58
2021/10/14 00:54:59;;;;;;;;;;;;;;;;;;2115306;28;19923;-57
2021/10/14 00:56:00;;;;;;;;;;;;;;;;;;2114948;28;20391;-58
2021/10/14 00:57:01;;;;;;;;;;;;;;;;;;2115394;28;19985;-57
2021/10/14 00:58:02;;;;;;;;;;;;;;;;;;2115199;28;19935;-58
2021/10/14 00:59:03;;;;;;;;;;;;;;;;;;2115196;28;19931;-57
2021/10/14 01:00:03;;;;;;;;;;;;;;;;;;2114965;28;19924;-57
2021/10/14 01:01:04;;;;;;;;;;;;;;;;;;2114938;28;19934;-57
2021/10/14 01:02:05;;;;;;;;;;;;;;;;;;2115265;28;19973;-57
2021/10/14 01:03:06;;;;;;;;;;;;;;;;;;2115214;28;20334;-58
2021/10/14 01:04:07;;;;;;;;;;;;;;;;;;2115286;28;19928;-58
2021/10/14 01:05:08;;;;;;;;;;;;;;;;;;2115023;28;20025;-58
2021/10/14 01:06:09;;;;;;;;;;;;;;;;;;2115108;28;19924;-57
2021/10/14 01:07:10;;;;;;;;;;;;;;;;;;2115144;28;19955;-58
2021/10/14 01:08:10;;;;;;;;;;;;;;;;;;2115013;28;20288;-58
2021/10/14 01:09:11;;;;;;;;;;;;;;;;;;2115029;28;19969;-57
2021/10/14 01:10:12;;;;;;;;;;;;;;;;;;2115012;28;19924;-57
2021/10/14 01:11:13;;;;;;;;;;;;;;;;;;2114900;28;19924;-57
2021/10/14 01:12:14;;;;;;;;;;;;;;;;;;2115223;28;19977;-58
2021/10/14 01:13:15;;;;;;;;;;;;;;;;;;2115144;28;19924;-57
2021/10/14 01:14:16;;;;;;;;;;;;;;;;;;2115056;28;20330;-57
2021/10/14 01:15:16;;;;;;;;;;;;;;;;;;2114896;28;19971;-56
2021/10/14 01:16:17;;;;;;;;;;;;;;;;;;2114943;28;19935;-58
2021/10/14 01:17:18;;;;;;;;;;;;;;;;;;2115032;28;19923;-56
2021/10/14 01:18:19;;;;;;;;;;;;;;;;;;2114922;28;20481;-58
2021/10/14 01:19:20;;;;;;;;;;;;;;;;;;2114860;28;19973;-58
2021/10/14 01:20:20;;;;;;;;;;;;;;;;;;2115005;28;19927;-58
2021/10/14 01:21:21;;;;;;;;;;;;;;;;;;2114964;28;20064;-58
2021/10/14 01:22:22;;;;;;;;;;;;;;;;;;2114989;28;19969;-58
2021/10/14 01:23:23;;;;;;;;;;;;;;;;;;2114804;28;19931;-57
2021/10/14 01:24:24;;;;;;;;;;;;;;;;;;2114808;28;19924;-59
2021/10/14 01:25:25;;;;;;;;;;;;;;;;;;2114960;28;19924;-58
2021/10/14 01:26:25;;;;;;;;;;;;;;;;;;2114979;28;19930;-58
2021/10/14 01:27:26;;;;;;;;;;;;;;;;;;2114880;28;19931;-58
2021/10/14 01:28:27;;;;;;;;;;;;;;;;;;2114846;28;20419;-58
2021/10/14 01:29:28;;;;;;;;;;;;;;;;;;2114999;28;20316;-58
2021/10/14 01:30:28;;;;;;;;;;;;;;;;;;2114757;28;19924;-58
2021/10/14 01:31:29;;;;;;;;;;;;;;;;;;2114978;28;19969;-58
2021/10/14 01:32:30;;;;;;;;;;;;;;;;;;2114704;28;19924;-57
2021/10/14 01:33:31;;;;;;;;;;;;;;;;;;2115069;28;19931;-57
2021/10/14 01:34:32;;;;;;;;;;;;;;;;;;2114802;28;19931;-58
2021/10/14 01:35:33;;;;;;;;;;;;;;;;;;2115050;28;19955;-58
2021/10/14 01:36:33;;;;;;;;;;;;;;;;;;2114780;28;19928;-57
2021/10/14 01:37:34;;;;;;;;;;;;;;;;;;2115114;28;20011;-58
2021/10/14 01:38:35;;;;;;;;;;;;;;;;;;2114766;28;20300;-58
2021/10/14 01:39:36;;;;;;;;;;;;;;;;;;2114868;28;20399;-58
2021/10/14 01:40:37;;;;;;;;;;;;;;;;;;2114672;28;20388;-58
2021/10/14 01:41:38;;;;;;;;;;;;;;;;;;2114933;28;20173;-58
2021/10/14 01:42:38;;;;;;;;;;;;;;;;;;2114780;28;19924;-58
2021/10/14 01:43:39;;;;;;;;;;;;;;;;;;2114849;28;19924;-57
2021/10/14 01:44:40;;;;;;;;;;;;;;;;;;2114706;28;19988;-58
2021/10/14 01:45:41;;;;;;;;;;;;;;;;;;2114833;28;19927;-56
2021/10/14 01:46:42;;;;;;;;;;;;;;;;;;2114701;28;19969;-58
2021/10/14 01:47:43;;;;;;;;;;;;;;;;;;2114871;28;19923;-58
2021/10/14 01:48:43;;;;;;;;;;;;;;;;;;2114654;28;19924;-57
2021/10/14 01:49:44;;;;;;;;;;;;;;;;;;2115104;28;19923;-58
2021/10/14 01:50:45;;;;;;;;;;;;;;;;;;2114529;28;20296;-57
2021/10/14 01:51:46;;;;;;;;;;;;;;;;;;2114939;28;20293;-58
2021/10/14 01:52:46;;;;;;;;;;;;;;;;;;2114651;28;19924;-57
2021/10/14 01:53:47;;;;;;;;;;;;;;;;;;2114813;28;19928;-58
2021/10/14 01:54:48;;;;;;;;;;;;;;;;;;2114666;28;19983;-58
2021/10/14 01:55:49;;;;;;;;;;;;;;;;;;2114771;28;19924;-58
2021/10/14 01:56:50;;;;;;;;;;;;;;;;;;2114315;28;20292;-57
2021/10/14 01:57:51;;;;;;;;;;;;;;;;;;2114675;28;19923;-56
2021/10/14 01:58:52;;;;;;;;;;;;;;;;;;2114865;28;19923;-56
2021/10/14 01:59:53;;;;;;;;;;;;;;;;;;2114592;28;20038;-56
2021/10/14 02:00:53;;;;;;;;;;;;;;;;;;2114740;28;19973;-55
2021/10/14 02:01:54;;;;;;;;;;;;;;;;;;2114552;28;20389;-58
2021/10/14 02:02:55;;;;;;;;;;;;;;;;;;2115062;28;20404;-55
2021/10/14 02:03:56;;;;;;;;;;;;;;;;;;2114576;28;19923;-57
2021/10/14 02:04:57;;;;;;;;;;;;;;;;;;2114817;28;19927;-57
2021/10/14 02:05:58;;;;;;;;;;;;;;;;;;2114562;28;19928;-58
2021/10/14 02:06:58;;;;;;;;;;;;;;;;;;2114762;28;19923;-57
2021/10/14 02:07:59;;;;;;;;;;;;;;;;;;2114500;28;19923;-57
2021/10/14 02:09:00;;;;;;;;;;;;;;;;;;2114728;28;19930;-57
2021/10/14 02:10:01;;;;;;;;;;;;;;;;;;2114597;28;19965;-57
2021/10/14 02:11:02;;;;;;;;;;;;;;;;;;2114579;28;19931;-57
2021/10/14 02:12:03;;;;;;;;;;;;;;;;;;2114677;28;20429;-57
2021/10/14 02:13:03;;;;;;;;;;;;;;;;;;2114876;28;19946;-57
2021/10/14 02:14:04;;;;;;;;;;;;;;;;;;2114404;28;19958;-57
2021/10/14 02:15:05;;;;;;;;;;;;;;;;;;2114619;28;19930;-58
2021/10/14 02:16:06;;;;;;;;;;;;;;;;;;2114496;28;19932;-57
2021/10/14 02:17:06;;;;;;;;;;;;;;;;;;2114744;28;19924;-57
2021/10/14 02:18:07;;;;;;;;;;;;;;;;;;2114580;28;19927;-57
2021/10/14 02:19:08;;;;;;;;;;;;;;;;;;2114632;28;19924;-57
2021/10/14 02:20:09;;;;;;;;;;;;;;;;;;2114605;28;19931;-58
2021/10/14 02:21:10;;;;;;;;;;;;;;;;;;2114618;28;20348;-57
2021/10/14 02:22:11;;;;;;;;;;;;;;;;;;2114636;28;19924;-58
2021/10/14 02:23:12;;;;;;;;;;;;;;;;;;2114796;28;20023;-57
2021/10/14 02:24:13;;;;;;;;;;;;;;;;;;2114496;28;19949;-57
2021/10/14 02:25:14;;;;;;;;;;;;;;;;;;2114718;28;19924;-57
2021/10/14 02:26:15;;;;;;;;;;;;;;;;;;2114524;28;19923;-57
2021/10/14 02:27:16;;;;;;;;;;;;;;;;;;2114541;28;19959;-57
2021/10/14 02:28:17;;;;;;;;;;;;;;;;;;2114561;28;19928;-58
2021/10/14 02:29:17;;;;;;;;;;;;;;;;;;2114560;28;19927;-58
2021/10/14 02:30:18;;;;;;;;;;;;;;;;;;2114824;28;20391;-57
2021/10/14 02:31:19;;;;;;;;;;;;;;;;;;2114333;28;20301;-57
2021/10/14 02:32:20;;;;;;;;;;;;;;;;;;2114718;28;19924;-57
2021/10/14 02:33:21;;;;;;;;;;;;;;;;;;2114430;28;20366;-57
2021/10/14 02:34:22;;;;;;;;;;;;;;;;;;2114710;28;19931;-57
2021/10/14 02:35:22;;;;;;;;;;;;;;;;;;2114390;28;19928;-58
2021/10/14 02:36:23;;;;;;;;;;;;;;;;;;2114658;28;19931;-58
2021/10/14 02:37:24;;;;;;;;;;;;;;;;;;2114505;28;19927;-58
2021/10/14 02:38:25;;;;;;;;;;;;;;;;;;2114631;28;20292;-57
2021/10/14 02:39:26;;;;;;;;;;;;;;;;;;2114458;28;19931;-58
2021/10/14 02:40:27;;;;;;;;;;;;;;;;;;2114428;28;20035;-58
2021/10/14 02:41:27;;;;;;;;;;;;;;;;;;2114300;28;19928;-57
2021/10/14 02:42:28;;;;;;;;;;;;;;;;;;2114542;28;19928;-57
2021/10/14 02:43:29;;;;;;;;;;;;;;;;;;2114480;28;19927;-57
2021/10/14 02:44:30;;;;;;;;;;;;;;;;;;2114373;28;20291;-58
2021/10/14 02:45:31;;;;;;;;;;;;;;;;;;2114333;28;19924;-57
2021/10/14 02:46:31;;;;;;;;;;;;;;;;;;2114479;28;19924;-57
2021/10/14 02:47:32;;;;;;;;;;;;;;;;;;2114498;28;19931;-57
2021/10/14 02:48:33;;;;;;;;;;;;;;;;;;2114501;28;19924;-57
2021/10/14 02:49:34;;;;;;;;;;;;;;;;;;2114483;28;19927;-57
2021/10/14 02:50:34;;;;;;;;;;;;;;;;;;2114287;28;19930;-57
2021/10/14 02:51:35;;;;;;;;;;;;;;;;;;2114276;28;19923;-58
2021/10/14 02:52:36;;;;;;;;;;;;;;;;;;2114569;28;20299;-58
2021/10/14 02:53:37;;;;;;;;;;;;;;;;;;2114433;28;20505;-56
2021/10/14 02:54:38;;;;;;;;;;;;;;;;;;2114477;28;19981;-58
2021/10/14 02:55:39;;;;;;;;;;;;;;;;;;2114442;28;19924;-58
2021/10/14 02:56:40;;;;;;;;;;;;;;;;;;2114177;28;19924;-58
2021/10/14 02:57:40;;;;;;;;;;;;;;;;;;2114432;28;19931;-57
2021/10/14 02:58:41;;;;;;;;;;;;;;;;;;2114341;28;19923;-57
2021/10/14 02:59:42;;;;;;;;;;;;;;;;;;2114555;28;20337;-57
2021/10/14 03:00:43;;;;;;;;;;;;;;;;;;2114029;28;19924;-57
2021/10/14 03:01:44;;;;;;;;;;;;;;;;;;2114375;28;19924;-57
2021/10/14 03:02:45;;;;;;;;;;;;;;;;;;2114172;28;19924;-57
2021/10/14 03:03:46;;;;;;;;;;;;;;;;;;2114401;28;19923;-57
2021/10/14 03:04:46;;;;;;;;;;;;;;;;;;2114202;28;19923;-57
2021/10/14 03:05:47;;;;;;;;;;;;;;;;;;2114451;28;20300;-57
2021/10/14 03:06:48;;;;;;;;;;;;;;;;;;2114156;28;19924;-57
2021/10/14 03:07:49;;;;;;;;;;;;;;;;;;2114497;28;19930;-57
2021/10/14 03:08:50;;;;;;;;;;;;;;;;;;2113377;28;19977;-58
2021/10/14 03:09:50;;;;;;;;;;;;;;;;;;2114211;28;19924;-57
2021/10/14 03:10:51;;;;;;;;;;;;;;;;;;2114093;28;19924;-57
2021/10/14 03:11:52;;;;;;;;;;;;;;;;;;2114343;28;19924;-57
2021/10/14 03:12:53;;;;;;;;;;;;;;;;;;2114198;28;19954;-56
2021/10/14 03:13:54;;;;;;;;;;;;;;;;;;2114322;28;19924;-58
2021/10/14 03:14:54;;;;;;;;;;;;;;;;;;2114083;28;19924;-57
2021/10/14 03:15:55;;;;;;;;;;;;;;;;;;2114298;28;19924;-57
2021/10/14 03:16:56;;;;;;;;;;;;;;;;;;2114250;28;19954;-57
2021/10/14 03:17:57;;;;;;;;;;;;;;;;;;2114270;28;19931;-57
2021/10/14 03:18:58;;;;;;;;;;;;;;;;;;2114074;28;19928;-57
2021/10/14 03:19:58;;;;;;;;;;;;;;;;;;2114227;28;19924;-57
2021/10/14 03:20:59;;;;;;;;;;;;;;;;;;2114082;28;19931;-57
2021/10/14 03:22:00;;;;;;;;;;;;;;;;;;2114294;28;20376;-57
2021/10/14 03:23:01;;;;;;;;;;;;;;;;;;2114219;28;19931;-57
2021/10/14 03:24:02;;;;;;;;;;;;;;;;;;2114173;28;19947;-57
2021/10/14 03:25:03;;;;;;;;;;;;;;;;;;2114220;28;19928;-57
2021/10/14 03:26:04;;;;;;;;;;;;;;;;;;2114142;28;19924;-57
2021/10/14 03:27:04;;;;;;;;;;;;;;;;;;2114252;28;20518;-57
2021/10/14 03:28:05;;;;;;;;;;;;;;;;;;2114148;28;19930;-57
2021/10/14 03:29:06;;;;;;;;;;;;;;;;;;2114257;28;20334;-57
2021/10/14 03:30:07;;;;;;;;;;;;;;;;;;2114167;28;20384;-56
2021/10/14 03:31:08;;;;;;;;;;;;;;;;;;2114109;28;19932;-57
2021/10/14 03:32:09;;;;;;;;;;;;;;;;;;2114027;28;19930;-57
2021/10/14 03:33:09;;;;;;;;;;;;;;;;;;2114278;28;19931;-57
2021/10/14 03:34:11;;;;;;;;;;;;;;;;;;2114042;28;20448;-57
2021/10/14 03:35:11;;;;;;;;;;;;;;;;;;2114235;28;19923;-57
2021/10/14 03:36:12;;;;;;;;;;;;;;;;;;2114052;28;20296;-57
2021/10/14 03:37:13;;;;;;;;;;;;;;;;;;2114271;28;19930;-57
2021/10/14 03:38:14;;;;;;;;;;;;;;;;;;2114052;28;19923;-57
2021/10/14 03:39:15;;;;;;;;;;;;;;;;;;2114263;28;20007;-57
2021/10/14 03:40:16;;;;;;;;;;;;;;;;;;2114026;28;20307;-57
2021/10/14 03:41:16;;;;;;;;;;;;;;;;;;2113960;28;19931;-57
2021/10/14 03:42:18;;;;;;;;;;;;;;;;;;2114284;28;19936;-57
2021/10/14 03:43:19;;;;;;;;;;;;;;;;;;2114054;28;20089;-57
2021/10/14 03:44:20;;;;;;;;;;;;;;;;;;2114093;28;19931;-57
2021/10/14 03:45:20;;;;;;;;;;;;;;;;;;2113994;28;19935;-57
2021/10/14 03:46:21;;;;;;;;;;;;;;;;;;2114052;28;19925;-57
2021/10/14 03:47:24;;;;;;;;;;;;;;;;;;2114020;28;19923;-57
2021/10/14 03:48:25;;;;;;;;;;;;;;;;;;2114090;28;20301;-57
2021/10/14 03:49:25;;;;;;;;;;;;;;;;;;2114099;28;19946;-58
2021/10/14 03:50:26;;;;;;;;;;;;;;;;;;2114168;28;20292;-58
2021/10/14 03:51:27;;;;;;;;;;;;;;;;;;2113994;28;19924;-57
2021/10/14 03:52:28;;;;;;;;;;;;;;;;;;2114149;28;19927;-57
2021/10/14 03:53:29;;;;;;;;;;;;;;;;;;2114071;28;19928;-57
2021/10/14 03:54:30;;;;;;;;;;;;;;;;;;2114336;28;19946;-57
2021/10/14 03:55:30;;;;;;;;;;;;;;;;;;2113754;28;20356;-58
2021/10/14 03:56:31;;;;;;;;;;;;;;;;;;2114115;28;19931;-57
2021/10/14 03:57:32;;;;;;;;;;;;;;;;;;2113987;28;20347;-57
2021/10/14 03:58:33;;;;;;;;;;;;;;;;;;2114258;28;20319;-58
2021/10/14 03:59:33;;;;;;;;;;;;;;;;;;2113848;28;19924;-58
2021/10/14 04:00:34;;;;;;;;;;;;;;;;;;2114035;28;19924;-57
2021/10/14 04:01:35;;;;;;;;;;;;;;;;;;2113959;28;20486;-57
2021/10/14 04:02:36;;;;;;;;;;;;;;;;;;2114202;28;20001;-57
2021/10/14 04:03:37;;;;;;;;;;;;;;;;;;2113842;28;19924;-57
2021/10/14 04:04:38;;;;;;;;;;;;;;;;;;2114150;28;19927;-57
2021/10/14 04:05:39;;;;;;;;;;;;;;;;;;2113599;28;19976;-57
2021/10/14 04:06:40;;;;;;;;;;;;;;;;;;2114250;28;20342;-57
2021/10/14 04:07:41;;;;;;;;;;;;;;;;;;2113991;28;19946;-58
2021/10/14 04:08:41;;;;;;;;;;;;;;;;;;2114321;28;19924;-57
2021/10/14 04:09:42;;;;;;;;;;;;;;;;;;2113769;28;19961;-58
2021/10/14 04:10:43;;;;;;;;;;;;;;;;;;2114141;28;19924;-56
2021/10/14 04:11:44;;;;;;;;;;;;;;;;;;2114013;28;19931;-57
2021/10/14 04:12:44;;;;;;;;;;;;;;;;;;2114250;28;20344;-57
2021/10/14 04:13:45;;;;;;;;;;;;;;;;;;2114019;28;19931;-57
2021/10/14 04:14:46;;;;;;;;;;;;;;;;;;2113932;28;20002;-57
2021/10/14 04:15:48;;;;;;;;;;;;;;;;;;2113730;28;19985;-57
2021/10/14 04:16:49;;;;;;;;;;;;;;;;;;2114047;28;19924;-58
2021/10/14 04:17:49;;;;;;;;;;;;;;;;;;2114015;28;19923;-56
2021/10/14 04:18:50;;;;;;;;;;;;;;;;;;2113818;28;19927;-57
2021/10/14 04:19:51;;;;;;;;;;;;;;;;;;2114012;28;19923;-57
2021/10/14 04:20:52;;;;;;;;;;;;;;;;;;2115077;28;20308;-57
2021/10/14 04:21:53;;;;;;;;;;;;;;;;;;2115591;28;20288;-57
2021/10/14 04:22:54;;;;;;;;;;;;;;;;;;2115442;28;19924;-57
2021/10/14 04:23:56;;;;;;;;;;;;;;;;;;2115187;28;19923;-57
2021/10/14 04:24:57;;;;;;;;;;;;;;;;;;2115434;28;20332;-57
2021/10/14 04:25:58;;;;;;;;;;;;;;;;;;2115329;28;19935;-57
2021/10/14 04:26:59;;;;;;;;;;;;;;;;;;2115387;28;19924;-57
2021/10/14 04:28:00;;;;;;;;;;;;;;;;;;2115278;28;19947;-57
2021/10/14 04:29:00;;;;;;;;;;;;;;;;;;2115366;28;19927;-57
2021/10/14 04:30:01;;;;;;;;;;;;;;;;;;2115298;28;19931;-57
2021/10/14 04:31:02;;;;;;;;;;;;;;;;;;2115174;28;19924;-56
2021/10/14 04:32:03;;;;;;;;;;;;;;;;;;2115396;28;20008;-57
2021/10/14 04:33:03;;;;;;;;;;;;;;;;;;2115298;28;20032;-57
2021/10/14 04:34:04;;;;;;;;;;;;;;;;;;2115375;28;20276;-57
2021/10/14 04:35:05;;;;;;;;;;;;;;;;;;2115231;28;19930;-57
2021/10/14 04:36:06;;;;;;;;;;;;;;;;;;2115101;28;19923;-57
2021/10/14 04:37:07;;;;;;;;;;;;;;;;;;2115239;28;19930;-57
2021/10/14 04:38:08;;;;;;;;;;;;;;;;;;2115406;28;19975;-57
2021/10/14 04:39:08;;;;;;;;;;;;;;;;;;2115321;28;20003;-57
2021/10/14 04:40:09;;;;;;;;;;;;;;;;;;2115171;28;19963;-58
2021/10/14 04:41:14;;;;;;;;;;;;;;;;;;2115345;28;19946;-57
2021/10/14 04:42:15;;;;;;;;;;;;;;;;;;2115330;28;19931;-58
2021/10/14 04:43:16;;;;;;;;;;;;;;;;;;2115142;28;19924;-58
2021/10/14 04:44:17;;;;;;;;;;;;;;;;;;2115090;28;19930;-58
2021/10/14 04:45:17;;;;;;;;;;;;;;;;;;2115192;28;19931;-58
2021/10/14 04:46:20;;;;;;;;;;;;;;;;;;2115014;28;19932;-58
2021/10/14 04:47:21;;;;;;;;;;;;;;;;;;2115165;28;20333;-57
2021/10/14 04:48:22;;;;;;;;;;;;;;;;;;2115110;28;19923;-57
2021/10/14 04:49:23;;;;;;;;;;;;;;;;;;2115345;28;20300;-58
2021/10/14 04:50:23;;;;;;;;;;;;;;;;;;2115054;28;19931;-58
2021/10/14 04:51:24;;;;;;;;;;;;;;;;;;2115201;28;19924;-58
2021/10/14 04:52:25;;;;;;;;;;;;;;;;;;2115074;28;19932;-58
2021/10/14 04:53:26;;;;;;;;;;;;;;;;;;2115326;28;19924;-58
2021/10/14 04:54:27;;;;;;;;;;;;;;;;;;2115057;28;19924;-57
2021/10/14 04:55:28;;;;;;;;;;;;;;;;;;2115154;28;19935;-58
2021/10/14 04:56:28;;;;;;;;;;;;;;;;;;2115174;28;20494;-58
2021/10/14 04:57:29;;;;;;;;;;;;;;;;;;2115258;28;20280;-58
2021/10/14 04:58:30;;;;;;;;;;;;;;;;;;2115063;28;19930;-58
2021/10/14 04:59:31;;;;;;;;;;;;;;;;;;2115159;28;19931;-58
2021/10/14 05:00:31;;;;;;;;;;;;;;;;;;2114932;28;19923;-58
2021/10/14 05:01:32;;;;;;;;;;;;;;;;;;2115274;28;19924;-58
2021/10/14 05:02:33;;;;;;;;;;;;;;;;;;2114946;28;20207;-57
2021/10/14 05:03:34;;;;;;;;;;;;;;;;;;2115222;28;20626;-57
2021/10/14 05:04:35;;;;;;;;;;;;;;;;;;2114985;28;19971;-58
2021/10/14 05:05:36;;;;;;;;;;;;;;;;;;2115107;28;20005;-57
2021/10/14 05:06:37;;;;;;;;;;;;;;;;;;2114909;28;20131;-57
2021/10/14 05:07:38;;;;;;;;;;;;;;;;;;2115183;28;19978;-57
2021/10/14 05:08:39;;;;;;;;;;;;;;;;;;2115189;28;19934;-58
2021/10/14 05:09:39;;;;;;;;;;;;;;;;;;2115319;28;19969;-58
2021/10/14 05:10:40;;;;;;;;;;;;;;;;;;2115040;28;19923;-58
2021/10/14 05:11:41;;;;;;;;;;;;;;;;;;2115063;28;20002;-57
2021/10/14 05:12:42;;;;;;;;;;;;;;;;;;2114938;28;20329;-57
2021/10/14 05:13:43;;;;;;;;;;;;;;;;;;2115093;28;19931;-57
2021/10/14 05:14:43;;;;;;;;;;;;;;;;;;2115137;28;20364;-58
2021/10/14 05:15:44;;;;;;;;;;;;;;;;;;2114837;28;19924;-57
2021/10/14 05:16:45;;;;;;;;;;;;;;;;;;2115201;28;19931;-57
2021/10/14 05:17:46;;;;;;;;;;;;;;;;;;2114919;28;20150;-57
2021/10/14 05:18:47;;;;;;;;;;;;;;;;;;2115239;28;19923;-57
2021/10/14 05:19:47;;;;;;;;;;;;;;;;;;2114874;28;20297;-57
2021/10/14 05:20:48;;;;;;;;;;;;;;;;;;2115150;28;20273;-58
2021/10/14 05:21:50;;;;;;;;;;;;;;;;;;2114905;28;19924;-58
2021/10/14 05:22:51;;;;;;;;;;;;;;;;;;2115233;28;20060;-57
2021/10/14 05:23:52;;;;;;;;;;;;;;;;;;2115037;28;19924;-57
2021/10/14 05:24:53;;;;;;;;;;;;;;;;;;2115224;28;19924;-58
2021/10/14 05:25:53;;;;;;;;;;;;;;;;;;2114872;28;19923;-58
2021/10/14 05:26:54;;;;;;;;;;;;;;;;;;2114990;28;20006;-57
2021/10/14 05:27:55;;;;;;;;;;;;;;;;;;2114907;28;20305;-57
2021/10/14 05:28:56;;;;;;;;;;;;;;;;;;2115188;28;19977;-58
2021/10/14 05:29:56;;;;;;;;;;;;;;;;;;2114788;28;19923;-57
2021/10/14 05:30:57;;;;;;;;;;;;;;;;;;2114954;28;20308;-58
2021/10/14 05:32:00;;;;;;;;;;;;;;;;;;2114017;28;20012;-58
2021/10/14 05:33:01;;;;;;;;;;;;;;;;;;2114963;28;20392;-58
2021/10/14 05:34:09;;;;;;;;;;;;;;;;;;2114947;28;19924;-58
2021/10/14 05:35:10;;;;;;;;;;;;;;;;;;2115132;28;20364;-58
2021/10/14 05:36:11;;;;;;;;;;;;;;;;;;2114710;28;19924;-58
2021/10/14 05:37:12;;;;;;;;;;;;;;;;;;2114889;28;19938;-58
2021/10/14 05:38:12;;;;;;;;;;;;;;;;;;2114688;28;19924;-58
2021/10/14 05:39:13;;;;;;;;;;;;;;;;;;2115175;28;20369;-58
2021/10/14 05:40:14;;;;;;;;;;;;;;;;;;2114746;28;20399;-58
2021/10/14 05:41:15;;;;;;;;;;;;;;;;;;2114989;28;20430;-57
2021/10/14 05:42:16;;;;;;;;;;;;;;;;;;2114727;28;19957;-58
2021/10/14 05:43:16;;;;;;;;;;;;;;;;;;2114907;28;19923;-58
2021/10/14 05:44:17;;;;;;;;;;;;;;;;;;2114820;28;19929;-58
2021/10/14 05:45:18;;;;;;;;;;;;;;;;;;2114981;28;19932;-58
2021/10/14 05:46:19;;;;;;;;;;;;;;;;;;2114753;28;20356;-58
2021/10/14 05:47:20;;;;;;;;;;;;;;;;;;2114852;28;20289;-58
2021/10/14 05:48:24;;;;;;;;;;;;;;;;;;2114817;28;19928;-58
2021/10/14 05:49:25;;;;;;;;;;;;;;;;;;2114692;28;19924;-58
2021/10/14 05:50:26;;;;;;;;;;;;;;;;;;2114661;28;19931;-58
2021/10/14 05:51:27;;;;;;;;;;;;;;;;;;2114806;28;19923;-58
2021/10/14 05:52:27;;;;;;;;;;;;;;;;;;2114856;28;19924;-58
2021/10/14 05:53:28;;;;;;;;;;;;;;;;;;2114783;28;20420;-58
2021/10/14 05:54:29;;;;;;;;;;;;;;;;;;2114941;28;20008;-58
2021/10/14 05:55:30;;;;;;;;;;;;;;;;;;2114610;28;19931;-58
2021/10/14 05:56:31;;;;;;;;;;;;;;;;;;2114737;28;20092;-58
2021/10/14 05:57:31;;;;;;;;;;;;;;;;;;2114845;28;19927;-58
2021/10/14 05:58:32;;;;;;;;;;;;;;;;;;2114694;28;20281;-58
2021/10/14 05:59:33;;;;;;;;;;;;;;;;;;2114690;28;19924;-58
2021/10/14 06:00:34;;;;;;;;;;;;;;;;;;2114740;28;19966;-58
2021/10/14 06:01:35;;;;;;;;;;;;;;;;;;2114634;28;20411;-59
2021/10/14 06:02:36;;;;;;;;;;;;;;;;;;2114680;28;20410;-57
2021/10/14 06:03:37;;;;;;;;;;;;;;;;;;2114813;28;20019;-58
2021/10/14 06:04:38;;;;;;;;;;;;;;;;;;2114701;28;20291;-58
2021/10/14 06:05:38;;;;;;;;;;;;;;;;;;2114587;28;20583;-58
2021/10/14 06:06:39;;;;;;;;;;;;;;;;;;2114659;28;19931;-58
2021/10/14 06:07:40;;;;;;;;;;;;;;;;;;2114677;28;19931;-59
2021/10/14 06:08:41;;;;;;;;;;;;;;;;;;2114895;28;19969;-58
2021/10/14 06:09:41;;;;;;;;;;;;;;;;;;2114642;28;19947;-58
2021/10/14 06:10:42;;;;;;;;;;;;;;;;;;2114622;28;20044;-58
2021/10/14 06:11:43;;;;;;;;;;;;;;;;;;2114706;28;20280;-58
2021/10/14 06:12:44;;;;;;;;;;;;;;;;;;2114611;28;20280;-58
2021/10/14 06:13:45;;;;;;;;;;;;;;;;;;2114671;28;20069;-59
2021/10/14 06:14:46;;;;;;;;;;;;;;;;;;2114595;28;19973;-59
2021/10/14 06:15:47;;;;;;;;;;;;;;;;;;2114643;28;19968;-58
2021/10/14 06:16:52;;;;;;;;;;;;;;;;;;2114671;28;20222;-58
2021/10/14 06:17:54;;;;;;;;;;;;;;;;;;2114785;28;20100;-58
2021/10/14 06:18:55;;;;;;;;;;;;;;;;;;2114655;28;19930;-58
2021/10/14 06:19:55;;;;;;;;;;;;;;;;;;2114779;28;19924;-58
2021/10/14 06:20:56;;;;;;;;;;;;;;;;;;2114367;28;19924;-58
2021/10/14 06:21:58;;;;;;;;;;;;;;;;;;2114703;28;19923;-58
2021/10/14 06:22:59;;;;;;;;;;;;;;;;;;2114394;28;19928;-58
2021/10/14 06:23:59;;;;;;;;;;;;;;;;;;2114883;28;19935;-59
2021/10/14 06:25:00;;;;;;;;;;;;;;;;;;2114359;28;19931;-58
2021/10/14 06:26:01;;;;;;;;;;;;;;;;;;2114682;28;19923;-58
2021/10/14 06:27:02;;;;;;;;;;;;;;;;;;2114346;28;19923;-58
2021/10/14 06:28:03;;;;;;;;;;;;;;;;;;2114768;28;19923;-58
2021/10/14 06:29:03;;;;;;;;;;;;;;;;;;2114361;28;19924;-58
2021/10/14 06:30:04;;;;;;;;;;;;;;;;;;2114719;28;19923;-58
2021/10/14 06:31:05;;;;;;;;;;;;;;;;;;2114309;28;20326;-58
2021/10/14 06:32:06;;;;;;;;;;;;;;;;;;2114631;28;20330;-58
2021/10/14 06:33:07;;;;;;;;;;;;;;;;;;2114380;28;19969;-58
2021/10/14 06:34:08;;;;;;;;;;;;;;;;;;2114542;28;19924;-58
2021/10/14 06:35:09;;;;;;;;;;;;;;;;;;2114374;28;19963;-58
2021/10/14 06:36:09;;;;;;;;;;;;;;;;;;2114482;28;20502;-58
2021/10/14 06:37:10;;;;;;;;;;;;;;;;;;2114479;28;19924;-58
2021/10/14 06:38:11;;;;;;;;;;;;;;;;;;2114645;28;19970;-59
2021/10/14 06:39:12;;;;;;;;;;;;;;;;;;2114358;28;20377;-59
2021/10/14 06:40:13;;;;;;;;;;;;;;;;;;2114464;28;19945;-58
2021/10/14 06:41:15;;;;;;;;;;;;;;;;;;2114281;28;19927;-58
2021/10/14 06:42:16;;;;;;;;;;;;;;;;;;2114479;28;20401;-59
2021/10/14 06:43:17;;;;;;;;;;;;;;;;;;2114399;28;19923;-59
2021/10/14 06:44:18;;;;;;;;;;;;;;;;;;2114447;28;20502;-59
2021/10/14 06:45:19;;;;;;;;;;;;;;;;;;2114416;28;20380;-58
2021/10/14 06:46:19;;;;;;;;;;;;;;;;;;2114504;28;19923;-58
2021/10/14 06:47:20;;;;;;;;;;;;;;;;;;2114476;28;20331;-58
2021/10/14 06:48:21;;;;;;;;;;;;;;;;;;2114465;28;20299;-58
2021/10/14 06:49:22;;;;;;;;;;;;;;;;;;2114393;28;20419;-58
2021/10/14 06:50:23;;;;;;;;;;;;;;;;;;2114250;28;19927;-58
2021/10/14 06:51:24;;;;;;;;;;;;;;;;;;2114588;28;19924;-58
2021/10/14 06:52:24;;;;;;;;;;;;;;;;;;2114223;28;20334;-58
2021/10/14 06:53:25;;;;;;;;;;;;;;;;;;2114461;28;20573;-58
2021/10/14 06:54:26;;;;;;;;;;;;;;;;;;2114215;28;19924;-59
2021/10/14 06:55:27;;;;;;;;;;;;;;;;;;2114520;28;19930;-58